createdAt,value
2023-03-17T00:01:10.818Z,0.55
2023-03-17T00:04:15.330Z,0.34
2023-03-17T00:07:19.982Z,0.12
2023-03-17T00:10:26.560Z,0.19
2023-03-17T00:13:31.120Z,0.19
2023-03-17T00:16:42.194Z,0.42
2023-03-17T00:19:46.766Z,0.11
2023-03-17T00:22:51.619Z,0.17
2023-03-17T00:25:57.235Z,-0.01
2023-03-17T00:29:01.815Z,0.30
2023-03-17T00:32:15.745Z,0.21
2023-03-17T00:35:28.763Z,0.23
2023-03-17T00:38:33.189Z,0.21
2023-03-17T00:41:38.272Z,-0.24
2023-03-17T00:44:44.657Z,-0.18
2023-03-17T00:47:50.254Z,0.17
2023-03-17T00:50:55.096Z,0.24
2023-03-17T00:54:01.504Z,-0.00
2023-03-17T00:57:09.790Z,0.07
2023-03-17T01:00:26.406Z,-0.17
2023-03-17T01:03:33.042Z,-0.38
2023-03-17T01:06:37.901Z,-0.34
2023-03-17T01:09:43.868Z,-0.10
2023-03-17T01:12:48.553Z,-0.09
2023-03-17T01:15:53.239Z,-0.06
2023-03-17T01:18:58.433Z,0.07
2023-03-17T01:22:03.100Z,0.06
2023-03-17T01:25:07.984Z,-0.38
2023-03-17T01:28:18.638Z,-0.44
2023-03-17T01:31:24.250Z,-0.40
2023-03-17T01:34:29.285Z,-0.35
2023-03-17T01:37:33.766Z,-0.08
2023-03-17T01:40:44.136Z,-0.50
2023-03-17T01:43:48.757Z,-0.28
2023-03-17T01:46:54.605Z,-0.67
2023-03-17T01:50:05.217Z,-0.22
2023-03-17T01:53:12.060Z,-0.77
2023-03-17T01:56:18.012Z,-0.30
2023-03-17T01:59:28.676Z,-0.56
2023-03-17T02:02:37.714Z,-0.48
2023-03-17T02:05:44.109Z,-0.82
2023-03-17T02:08:48.603Z,-0.85
2023-03-17T02:11:53.854Z,-0.95
2023-03-17T02:15:00.198Z,-0.91
2023-03-17T02:18:04.803Z,-1.00
2023-03-17T02:21:33.563Z,-1.07
2023-03-17T02:24:43.216Z,-1.12
2023-03-17T02:28:01.597Z,-1.05
2023-03-17T02:31:06.352Z,-1.15
2023-03-17T02:34:11.489Z,-0.76
2023-03-17T02:37:18.149Z,-0.76
2023-03-17T02:40:23.078Z,-0.86
2023-03-17T02:43:27.606Z,-1.06
2023-03-17T02:46:34.009Z,-1.13
2023-03-17T02:49:41.502Z,-0.82
2023-03-17T02:52:45.990Z,-0.65
2023-03-17T02:55:50.680Z,-0.66
2023-03-17T02:58:55.707Z,-0.47
2023-03-17T03:02:01.019Z,-0.76
2023-03-17T03:05:07.292Z,-0.56
2023-03-17T03:08:13.448Z,-0.54
2023-03-17T03:11:18.432Z,-0.46
2023-03-17T03:14:23.666Z,-0.67
2023-03-17T03:17:28.201Z,-0.92
2023-03-17T03:20:32.825Z,-0.93
2023-03-17T03:23:37.455Z,-1.13
2023-03-17T03:26:42.357Z,-0.89
2023-03-17T03:29:46.942Z,-1.09
2023-03-17T03:32:51.616Z,-1.02
2023-03-17T03:35:57.987Z,-1.04
2023-03-17T03:39:03.165Z,-0.91
2023-03-17T03:42:07.658Z,-0.87
2023-03-17T03:45:12.270Z,-0.88
2023-03-17T03:48:18.218Z,-0.88
2023-03-17T03:51:22.818Z,-0.90
2023-03-17T03:54:27.300Z,-0.66
2023-03-17T03:57:32.028Z,-0.48
2023-03-17T04:00:37.149Z,-0.39
2023-03-17T04:03:41.717Z,-0.39
2023-03-17T04:06:46.265Z,-0.35
2023-03-17T04:09:50.831Z,-0.64
2023-03-17T04:12:56.248Z,-1.02
2023-03-17T04:16:01.639Z,-1.17
2023-03-17T04:19:06.768Z,-0.93
2023-03-17T04:22:13.321Z,-0.93
2023-03-17T04:25:18.078Z,-0.81
2023-03-17T04:28:22.645Z,-0.76
2023-03-17T04:31:27.451Z,-1.05
2023-03-17T04:34:32.540Z,-1.15
2023-03-17T04:37:38.858Z,-1.23
2023-03-17T04:40:44.576Z,-1.36
2023-03-17T04:43:49.065Z,-1.28
2023-03-17T04:46:53.677Z,-1.25
2023-03-17T04:49:58.471Z,-1.58
2023-03-17T04:53:02.946Z,-1.46
2023-03-17T04:56:07.468Z,-1.21
2023-03-17T04:59:12.060Z,-0.88
2023-03-17T05:02:18.041Z,-1.05
2023-03-17T05:05:22.733Z,-1.17
2023-03-17T05:08:28.473Z,-0.97
2023-03-17T05:11:32.973Z,-0.75
2023-03-17T05:14:37.664Z,-1.03
2023-03-17T05:17:42.306Z,-0.98
2023-03-17T05:20:46.971Z,-0.81
2023-03-17T05:23:54.514Z,-1.11
2023-03-17T05:27:01.193Z,-0.97
2023-03-17T05:30:06.155Z,-0.86
2023-03-17T05:33:10.693Z,-1.01
2023-03-17T05:36:16.262Z,-1.11
2023-03-17T05:39:22.423Z,-1.37
2023-03-17T05:42:27.142Z,-1.56
2023-03-17T05:45:32.035Z,-1.28
2023-03-17T05:48:36.824Z,-1.50
2023-03-17T05:51:41.994Z,-1.15
2023-03-17T05:54:48.885Z,-0.99
2023-03-17T05:57:53.592Z,-0.94
2023-03-17T06:00:59.310Z,-0.63
2023-03-17T06:04:05.456Z,-0.92
2023-03-17T06:07:10.401Z,-0.41
2023-03-17T06:10:15.365Z,-0.50
2023-03-17T06:13:19.971Z,-0.66
2023-03-17T06:16:24.604Z,-0.74
2023-03-17T06:19:30.207Z,-1.14
2023-03-17T06:22:34.808Z,-0.81
2023-03-17T06:25:39.346Z,-0.46
2023-03-17T06:28:43.837Z,-0.12
2023-03-17T06:31:50.855Z,-0.12
2023-03-17T06:34:55.402Z,-0.26
2023-03-17T06:38:00.931Z,-0.53
2023-03-17T06:41:05.843Z,0.22
2023-03-17T06:44:10.505Z,0.27
2023-03-17T06:47:15.116Z,-0.03
2023-03-17T06:50:20.032Z,-0.33
2023-03-17T06:53:24.669Z,0.30
2023-03-17T06:56:30.683Z,0.62
2023-03-17T06:59:35.404Z,-0.27
2023-03-17T07:02:40.320Z,-0.33
2023-03-17T07:05:44.836Z,0.52
2023-03-17T07:08:50.826Z,1.04
2023-03-17T07:11:55.374Z,1.30
2023-03-17T07:15:00.037Z,1.41
2023-03-17T07:18:07.033Z,1.64
2023-03-17T07:21:11.954Z,1.84
2023-03-17T07:24:16.600Z,1.92
2023-03-17T07:27:23.224Z,2.29
2023-03-17T07:30:28.584Z,2.57
2023-03-17T07:33:33.737Z,2.50
2023-03-17T07:36:38.481Z,2.32
2023-03-17T07:39:43.706Z,3.01
2023-03-17T07:42:48.214Z,3.23
2023-03-17T07:45:52.938Z,2.80
2023-03-17T07:48:57.607Z,2.77
2023-03-17T07:52:02.222Z,2.82
2023-03-17T07:55:10.658Z,3.36
2023-03-17T07:58:16.000Z,3.39
2023-03-17T08:01:20.567Z,3.31
2023-03-17T08:04:27.604Z,3.12
2023-03-17T08:07:32.115Z,3.69
2023-03-17T08:10:36.678Z,4.27
2023-03-17T08:13:41.255Z,4.40
2023-03-17T08:16:45.902Z,4.92
2023-03-17T08:19:51.419Z,4.94
2023-03-17T08:22:57.651Z,4.95
2023-03-17T08:26:04.186Z,5.47
2023-03-17T08:29:09.602Z,5.68
2023-03-17T08:32:14.885Z,6.16
2023-03-17T08:35:19.642Z,5.83
2023-03-17T08:38:24.190Z,6.02
2023-03-17T08:41:28.797Z,6.37
2023-03-17T08:44:34.265Z,6.51
2023-03-17T08:47:40.031Z,6.42
2023-03-17T08:50:45.208Z,7.19
2023-03-17T08:53:50.360Z,7.02
2023-03-17T08:56:54.906Z,7.62
2023-03-17T08:59:59.434Z,8.12
2023-03-17T09:03:05.673Z,7.72
2023-03-17T09:06:12.382Z,7.84
2023-03-17T09:09:17.503Z,8.35
2023-03-17T09:12:22.405Z,8.56
2023-03-17T09:15:27.653Z,8.98
2023-03-17T09:18:33.015Z,8.75
2023-03-17T09:21:39.464Z,8.95
2023-03-17T09:24:44.404Z,10.03
2023-03-17T09:27:49.040Z,10.49
2023-03-17T09:30:58.491Z,10.44
2023-03-17T09:34:05.059Z,10.74
2023-03-17T09:37:09.731Z,10.57
2023-03-17T09:40:21.103Z,10.97
2023-03-17T09:43:43.826Z,11.62
2023-03-17T09:47:07.123Z,11.14
2023-03-17T09:50:19.027Z,12.06
2023-03-17T09:53:27.890Z,12.50
2023-03-17T09:56:34.772Z,12.90
2023-03-17T09:59:43.773Z,13.12
2023-03-17T10:02:48.804Z,13.43
2023-03-17T10:05:58.854Z,13.12
2023-03-17T10:09:26.188Z,13.44
2023-03-17T10:12:42.993Z,12.58
2023-03-17T10:15:52.962Z,13.84
2023-03-17T10:19:04.480Z,13.71
2023-03-17T10:22:57.961Z,14.62
2023-03-17T10:26:08.120Z,14.49
2023-03-17T10:29:24.014Z,14.52
2023-03-17T10:32:31.111Z,14.59
2023-03-17T10:35:37.467Z,15.61
2023-03-17T10:38:51.923Z,15.22
2023-03-17T10:42:15.332Z,14.62
2023-03-17T10:45:34.825Z,13.14
2023-03-17T10:48:39.826Z,15.26
2023-03-17T10:51:46.596Z,15.24
2023-03-17T10:54:51.327Z,14.19
2023-03-17T10:58:03.191Z,14.29
2023-03-17T11:01:09.896Z,15.07
2023-03-17T11:04:35.533Z,14.21
2023-03-17T11:07:40.625Z,15.67
2023-03-17T11:10:45.727Z,15.06
2023-03-17T11:13:50.306Z,15.20
2023-03-17T11:17:00.277Z,15.77
2023-03-17T11:20:04.957Z,15.54
2023-03-17T11:23:43.564Z,15.04
2023-03-17T11:27:24.049Z,16.75
2023-03-17T11:30:35.331Z,16.95
2023-03-17T11:33:57.144Z,17.25
2023-03-17T11:37:29.333Z,17.18
2023-03-17T11:40:34.146Z,17.03
2023-03-17T11:43:59.475Z,16.32
2023-03-17T11:47:31.761Z,16.82
2023-03-17T11:51:01.952Z,17.69
2023-03-17T11:54:08.075Z,18.40
2023-03-17T11:57:27.107Z,18.03
2023-03-17T12:00:36.580Z,17.98
2023-03-17T12:04:07.830Z,17.84
2023-03-17T12:07:21.335Z,18.00
2023-03-17T12:10:33.958Z,16.37
2023-03-17T12:13:40.970Z,16.10
2023-03-17T12:16:55.737Z,17.02
2023-03-17T12:20:16.423Z,16.50
2023-03-17T12:23:38.145Z,17.70
2023-03-17T12:27:05.860Z,17.68
2023-03-17T12:30:45.397Z,18.73
2023-03-17T12:33:54.948Z,18.04
2023-03-17T12:36:59.621Z,18.57
2023-03-17T12:40:10.473Z,18.61
2023-03-17T12:43:27.036Z,18.08
2023-03-17T12:46:37.673Z,18.14
2023-03-17T12:49:56.944Z,18.18
2023-03-17T12:53:19.810Z,18.84
2023-03-17T12:56:27.651Z,18.61
2023-03-17T12:59:34.007Z,19.27
2023-03-17T13:02:39.612Z,20.33
2023-03-17T13:05:51.083Z,17.93
2023-03-17T13:08:55.557Z,18.30
2023-03-17T13:12:03.277Z,19.65
2023-03-17T13:15:22.660Z,19.36
2023-03-17T13:18:46.457Z,19.39
2023-03-17T13:22:04.536Z,20.39
2023-03-17T13:25:29.748Z,20.78
2023-03-17T13:28:34.774Z,19.67
2023-03-17T13:31:39.423Z,20.51
2023-03-17T13:35:07.584Z,20.83
2023-03-17T13:38:36.964Z,21.06
2023-03-17T13:42:01.071Z,20.57
2023-03-17T13:45:38.955Z,21.14
2023-03-17T13:48:43.869Z,21.89
2023-03-17T13:52:03.428Z,22.13
2023-03-17T13:55:23.653Z,22.93
2023-03-17T13:58:33.225Z,23.06
2023-03-17T14:02:03.365Z,22.72
2023-03-17T14:05:18.188Z,22.31
2023-03-17T14:08:35.561Z,22.81
2023-03-17T14:11:41.903Z,23.05
2023-03-17T14:14:55.862Z,23.24
2023-03-17T14:18:18.571Z,23.42
2023-03-17T14:21:32.540Z,23.71
2023-03-17T14:24:37.082Z,23.17
2023-03-17T14:27:41.683Z,22.88
2023-03-17T14:30:47.231Z,22.54
2023-03-17T14:33:56.092Z,22.42
2023-03-17T14:37:04.791Z,22.31
2023-03-17T14:40:25.081Z,21.56
2023-03-17T14:43:30.209Z,21.00
2023-03-17T14:46:37.835Z,20.31
2023-03-17T14:49:42.826Z,20.37
2023-03-17T14:52:49.348Z,20.14
2023-03-17T14:55:53.995Z,19.50
2023-03-17T14:59:18.204Z,20.05
2023-03-17T15:02:29.078Z,19.73
2023-03-17T15:05:42.495Z,19.17
2023-03-17T15:08:47.196Z,18.69
2023-03-17T15:11:56.116Z,18.99
2023-03-17T15:15:09.076Z,18.76
2023-03-17T15:18:15.318Z,17.57
2023-03-17T15:21:41.282Z,17.71
2023-03-17T15:24:51.402Z,16.99
2023-03-17T15:27:55.952Z,16.52
2023-03-17T15:31:12.249Z,17.05
2023-03-17T15:34:16.957Z,16.66
2023-03-17T15:37:24.528Z,16.66
2023-03-17T15:40:29.546Z,16.18
2023-03-17T15:43:34.896Z,16.01
2023-03-17T15:46:39.402Z,15.85
2023-03-17T15:49:45.522Z,15.87
2023-03-17T15:52:55.598Z,15.54
2023-03-17T15:56:00.373Z,15.60
2023-03-17T15:59:04.861Z,15.65
2023-03-17T16:02:26.264Z,15.30
2023-03-17T16:05:33.560Z,14.83
2023-03-17T16:08:38.512Z,14.30
2023-03-17T16:11:43.560Z,14.19
2023-03-17T16:14:48.233Z,13.81
2023-03-17T16:17:55.654Z,13.98
2023-03-17T16:21:02.764Z,14.07
2023-03-17T16:24:17.181Z,13.90
2023-03-17T16:27:21.643Z,13.89
2023-03-17T16:30:29.636Z,13.39
2023-03-17T16:33:40.227Z,13.44
2023-03-17T16:36:44.784Z,13.07
2023-03-17T16:39:52.146Z,13.08
2023-03-17T16:42:56.623Z,13.88
2023-03-17T16:46:03.065Z,14.20
2023-03-17T16:49:07.735Z,13.52
2023-03-17T16:52:12.256Z,13.50
2023-03-17T16:55:17.888Z,13.00
2023-03-17T16:58:34.267Z,13.61
2023-03-17T17:01:38.780Z,13.06
2023-03-17T17:04:43.328Z,12.75
2023-03-17T17:07:48.427Z,12.48
2023-03-17T17:10:53.005Z,12.39
2023-03-17T17:13:59.707Z,12.54
2023-03-17T17:17:04.725Z,12.40
2023-03-17T17:20:16.598Z,12.27
2023-03-17T17:23:24.205Z,11.93
2023-03-17T17:26:28.698Z,11.93
2023-03-17T17:29:33.223Z,11.68
2023-03-17T17:32:37.904Z,11.51
2023-03-17T17:35:43.909Z,11.61
2023-03-17T17:38:48.596Z,11.68
2023-03-17T17:41:53.139Z,11.53
2023-03-17T17:44:57.718Z,11.31
2023-03-17T17:48:03.294Z,11.09
2023-03-17T17:51:07.838Z,11.12
2023-03-17T17:54:12.441Z,10.81
2023-03-17T17:57:17.157Z,11.01
2023-03-17T18:00:21.745Z,10.91
2023-03-17T18:03:26.896Z,10.86
2023-03-17T18:06:31.439Z,10.35
2023-03-17T18:09:37.438Z,10.14
2023-03-17T18:12:42.048Z,10.10
2023-03-17T18:15:46.759Z,10.20
2023-03-17T18:18:51.646Z,10.25
2023-03-17T18:21:56.183Z,10.21
2023-03-17T18:25:01.146Z,9.86
2023-03-17T18:28:06.265Z,9.95
2023-03-17T18:31:18.734Z,9.91
2023-03-17T18:34:31.751Z,9.68
2023-03-17T18:37:36.898Z,9.45
2023-03-17T18:40:42.191Z,9.40
2023-03-17T18:43:46.666Z,9.51
2023-03-17T18:46:51.141Z,9.37
2023-03-17T18:49:56.558Z,9.40
2023-03-17T18:53:01.140Z,9.26
2023-03-17T18:56:06.027Z,9.54
2023-03-17T18:59:10.637Z,9.33
2023-03-17T19:02:15.364Z,9.27
2023-03-17T19:05:20.247Z,8.94
2023-03-17T19:08:24.798Z,8.91
2023-03-17T19:11:29.699Z,9.27
2023-03-17T19:14:34.849Z,9.10
2023-03-17T19:17:39.438Z,9.05
2023-03-17T19:20:43.926Z,9.03
2023-03-17T19:23:49.608Z,8.95
2023-03-17T19:26:54.151Z,8.93
2023-03-17T19:29:58.700Z,8.90
2023-03-17T19:33:03.383Z,8.59
2023-03-17T19:36:12.854Z,8.60
2023-03-17T19:39:17.870Z,8.59
2023-03-17T19:42:22.326Z,8.36
2023-03-17T19:45:27.151Z,8.20
2023-03-17T19:48:32.045Z,8.24
2023-03-17T19:51:38.291Z,8.25
2023-03-17T19:54:45.255Z,8.23
2023-03-17T19:57:50.154Z,8.19
2023-03-17T20:00:54.748Z,8.05
2023-03-17T20:03:59.370Z,8.07
2023-03-17T20:07:05.680Z,7.81
2023-03-17T20:10:11.005Z,8.04
2023-03-17T20:13:15.666Z,8.07
2023-03-17T20:16:20.415Z,8.17
2023-03-17T20:19:25.190Z,8.05
2023-03-17T20:22:29.646Z,8.04
2023-03-17T20:25:34.218Z,7.97
2023-03-17T20:28:38.763Z,7.71
2023-03-17T20:31:43.818Z,7.93
2023-03-17T20:34:48.885Z,7.91
2023-03-17T20:37:56.810Z,7.92
2023-03-17T20:41:08.962Z,7.84
2023-03-17T20:44:13.966Z,7.59
2023-03-17T20:47:19.977Z,7.55
2023-03-17T20:50:24.913Z,7.46
2023-03-17T20:53:30.461Z,6.80
2023-03-17T20:56:35.075Z,7.04
2023-03-17T20:59:41.577Z,6.98
2023-03-17T21:02:49.984Z,7.03
2023-03-17T21:05:54.561Z,7.24
2023-03-17T21:09:00.485Z,6.62
2023-03-17T21:12:05.014Z,6.80
2023-03-17T21:15:11.004Z,6.29
2023-03-17T21:18:15.520Z,6.67
2023-03-17T21:21:21.686Z,6.53
2023-03-17T21:24:32.315Z,6.20
2023-03-17T21:27:37.751Z,6.34
2023-03-17T21:30:44.013Z,6.18
2023-03-17T21:33:50.430Z,6.44
2023-03-17T21:36:55.342Z,6.47
2023-03-17T21:40:00.172Z,6.30
2023-03-17T21:43:05.675Z,5.94
2023-03-17T21:46:10.571Z,6.09
2023-03-17T21:49:16.340Z,6.10
2023-03-17T21:52:22.363Z,5.64
2023-03-17T21:55:27.136Z,5.92
2023-03-17T21:58:31.762Z,5.94
2023-03-17T22:01:37.969Z,5.70
2023-03-17T22:04:43.314Z,5.98
2023-03-17T22:07:48.353Z,5.35
2023-03-17T22:10:52.983Z,5.12
2023-03-17T22:13:58.537Z,5.49
2023-03-17T22:17:05.274Z,5.63
2023-03-17T22:20:10.566Z,5.62
2023-03-17T22:23:15.155Z,5.48
2023-03-17T22:26:21.444Z,5.26
2023-03-17T22:29:26.422Z,5.13
2023-03-17T22:32:32.719Z,5.01
2023-03-17T22:35:37.963Z,4.60
2023-03-17T22:38:42.542Z,4.82
2023-03-17T22:41:47.006Z,4.93
2023-03-17T22:44:51.690Z,4.80
2023-03-17T22:47:56.394Z,5.00
2023-03-17T22:51:02.122Z,4.30
2023-03-17T22:54:08.723Z,4.35
2023-03-17T22:57:13.316Z,4.52
2023-03-17T23:00:18.241Z,4.57
2023-03-17T23:03:24.138Z,4.78
2023-03-17T23:06:28.689Z,4.87
2023-03-17T23:09:33.569Z,4.93
2023-03-17T23:12:39.491Z,4.91
2023-03-17T23:15:44.489Z,4.92
2023-03-17T23:18:49.497Z,4.66
2023-03-17T23:21:54.003Z,4.78
2023-03-17T23:25:00.292Z,4.82
2023-03-17T23:28:05.686Z,4.86
2023-03-17T23:31:10.994Z,4.68
2023-03-17T23:34:15.903Z,3.95
2023-03-17T23:37:20.404Z,3.57
2023-03-17T23:40:24.972Z,3.27
2023-03-17T23:43:29.470Z,3.96
2023-03-17T23:46:34.080Z,4.09
2023-03-17T23:49:39.016Z,4.17
2023-03-17T23:52:43.739Z,4.16
2023-03-17T23:55:48.333Z,3.73
2023-03-17T23:58:52.986Z,3.49
